Portada
METAR-TAF:

METAR-TAF

Aeroports :

Gilze en Rijen, Països Baixos

latitud: 51-34N, longitud: 004-56E, altitud: 15 m

Observació

L'informe es va fer fa 20 minuts, a les 22:25 UTC
Vent 6 kt del Sud-Est
Temperatura 19°C
Humitat 68%
Pressió 1012 hPa
Visibilitat 10 km o més
Cel cobert a una alçada de 13000 ft

METAR: EHGR 192225Z AUTO 13006KT 9999 OVC130 19/13 Q1012 BLU

Hora: 00:45 (22:45 UTC)

Pronòstic

L'informe es va fer fa 14 hores i 23 minuts, a les 08:22 UTC
Pronòstic vàlid del 19 a les 09 UTC al 19 a les 21 UTC
Vent 6 kt del Sud-Oest
Visibilitat 10 km o més
Núvols disperses a una alçada de 2000 ft
Evolucionant progressivament
l' 19 a les 17 UTC al 19 a les 20 UTC
Vent 5 kt del Sud/Sud-Est

TAF: EHGR 190822Z 1909/1921 22006KT 9999 SCT020 BECMG 1917/1920 15005KT

Observacions i pronòstics meteorològics de més de 4000 aeroports (METAR i TAF).

Les estacions disponibles són els punts grocs i vermells al mapa.

Posi el ratolí al punt desitjat per veure el nom de l'estació.

Feu clic per veure les observacions i els pronòstics meteorològics.

Per canviar el mapa: feu clic els botons verds amb una creu de color negre per apropar; al botó verd amb un guió per allunyar la imatge; o en les fletxes verdes per a mapes adjacents.


METAR-TAF: